sensor_id;sensor_type;location;lat;lon;timestamp;pressure;altitude;pressure_sealevel;temperature;humidity
55468;BME280;41332;42.702;23.200;2022-12-10T00:02:06;93327.19;;;10.68;80.76
55468;BME280;41332;42.702;23.200;2022-12-10T00:04:32;93319.41;;;10.72;80.35
55468;BME280;41332;42.702;23.200;2022-12-10T00:06:57;93325.34;;;10.85;79.98
55468;BME280;41332;42.702;23.200;2022-12-10T00:09:22;93326.09;;;11.01;79.58
55468;BME280;41332;42.702;23.200;2022-12-10T00:11:48;93314.06;;;11.00;78.96
55468;BME280;41332;42.702;23.200;2022-12-10T00:14:14;93328.31;;;10.99;78.97
55468;BME280;41332;42.702;23.200;2022-12-10T00:16:41;93327.69;;;11.06;78.77
55468;BME280;41332;42.702;23.200;2022-12-10T00:19:07;93334.31;;;11.00;77.17
55468;BME280;41332;42.702;23.200;2022-12-10T00:21:34;93340.25;;;10.81;75.30
55468;BME280;41332;42.702;23.200;2022-12-10T00:24:00;93338.06;;;10.67;78.14
55468;BME280;41332;42.702;23.200;2022-12-10T00:26:31;93337.63;;;10.65;78.93
55468;BME280;41332;42.702;23.200;2022-12-10T00:28:57;93338.63;;;10.76;79.51
55468;BME280;41332;42.702;23.200;2022-12-10T00:31:28;93347.53;;;10.87;78.79
55468;BME280;41332;42.702;23.200;2022-12-10T00:33:55;93338.31;;;10.94;78.29
55468;BME280;41332;42.702;23.200;2022-12-10T00:36:23;93316.59;;;10.97;78.17
55468;BME280;41332;42.702;23.200;2022-12-10T00:38:50;93326.59;;;11.07;78.00
55468;BME280;41332;42.702;23.200;2022-12-10T00:41:16;93321.09;;;11.12;78.51
55468;BME280;41332;42.702;23.200;2022-12-10T00:43:42;93317.44;;;11.17;79.04
55468;BME280;41332;42.702;23.200;2022-12-10T00:46:08;93317.75;;;11.15;79.39
55468;BME280;41332;42.702;23.200;2022-12-10T00:48:34;93333.25;;;11.20;79.54
55468;BME280;41332;42.702;23.200;2022-12-10T00:51:00;93332.50;;;11.20;80.02
55468;BME280;41332;42.702;23.200;2022-12-10T00:53:27;93333.97;;;11.17;79.75
55468;BME280;41332;42.702;23.200;2022-12-10T00:55:53;93324.63;;;11.20;79.79
55468;BME280;41332;42.702;23.200;2022-12-10T00:58:19;93326.50;;;11.19;79.52
55468;BME280;41332;42.702;23.200;2022-12-10T01:00:45;93305.13;;;11.21;80.34
55468;BME280;41332;42.702;23.200;2022-12-10T01:03:10;93333.22;;;11.17;80.80
55468;BME280;41332;42.702;23.200;2022-12-10T01:05:36;93340.41;;;10.88;75.51
55468;BME280;41332;42.702;23.200;2022-12-10T01:08:01;93339.63;;;10.39;78.38
55468;BME280;41332;42.702;23.200;2022-12-10T01:10:26;93324.34;;;10.29;82.59
55468;BME280;41332;42.702;23.200;2022-12-10T01:12:52;93321.38;;;10.31;84.35
55468;BME280;41332;42.702;23.200;2022-12-10T01:15:17;93319.13;;;10.45;84.18
55468;BME280;41332;42.702;23.200;2022-12-10T01:17:42;93314.56;;;10.58;83.64
55468;BME280;41332;42.702;23.200;2022-12-10T01:20:08;93309.06;;;10.63;83.11
55468;BME280;41332;42.702;23.200;2022-12-10T01:22:34;93319.13;;;10.61;83.46
55468;BME280;41332;42.702;23.200;2022-12-10T01:24:59;93327.63;;;10.70;82.26
55468;BME280;41332;42.702;23.200;2022-12-10T01:27:24;93318.06;;;10.78;81.78
55468;BME280;41332;42.702;23.200;2022-12-10T01:29:50;93320.94;;;10.89;81.99
55468;BME280;41332;42.702;23.200;2022-12-10T01:32:15;93320.94;;;10.89;81.41
55468;BME280;41332;42.702;23.200;2022-12-10T01:34:40;93316.44;;;10.89;80.80
55468;BME280;41332;42.702;23.200;2022-12-10T01:37:06;93313.13;;;10.93;80.85
55468;BME280;41332;42.702;23.200;2022-12-10T01:39:31;93307.19;;;10.96;80.77
55468;BME280;41332;42.702;23.200;2022-12-10T01:41:58;93313.63;;;10.98;80.10
55468;BME280;41332;42.702;23.200;2022-12-10T01:46:54;93310.09;;;11.07;80.19
55468;BME280;41332;42.702;23.200;2022-12-10T01:49:42;93309.38;;;11.10;80.70
55468;BME280;41332;42.702;23.200;2022-12-10T01:52:11;93306.31;;;11.08;80.68
55468;BME280;41332;42.702;23.200;2022-12-10T01:54:43;93313.28;;;11.00;81.48
55468;BME280;41332;42.702;23.200;2022-12-10T01:57:10;93305.13;;;11.05;81.00
55468;BME280;41332;42.702;23.200;2022-12-10T01:59:38;93295.81;;;11.08;81.49
55468;BME280;41332;42.702;23.200;2022-12-10T02:05:25;93307.03;;;11.04;81.43
55468;BME280;41332;42.702;23.200;2022-12-10T02:16:29;93272.44;;;11.02;81.36
55468;BME280;41332;42.702;23.200;2022-12-10T02:19:21;93284.13;;;11.05;80.45
55468;BME280;41332;42.702;23.200;2022-12-10T02:21:50;93287.19;;;11.07;80.21
55468;BME280;41332;42.702;23.200;2022-12-10T02:24:23;93289.81;;;11.07;79.77
55468;BME280;41332;42.702;23.200;2022-12-10T02:29:38;93279.78;;;11.13;78.50
55468;BME280;41332;42.702;23.200;2022-12-10T02:32:11;93268.44;;;11.09;78.57
55468;BME280;41332;42.702;23.200;2022-12-10T02:34:45;93264.22;;;11.04;78.76
55468;BME280;41332;42.702;23.200;2022-12-10T02:37:18;93261.66;;;11.08;79.25
55468;BME280;41332;42.702;23.200;2022-12-10T02:39:48;93278.00;;;11.17;78.29
55468;BME280;41332;42.702;23.200;2022-12-10T02:42:17;93261.34;;;11.09;78.79
55468;BME280;41332;42.702;23.200;2022-12-10T02:44:44;93274.53;;;11.13;78.92
55468;BME280;41332;42.702;23.200;2022-12-10T02:47:12;93277.84;;;11.10;78.06
55468;BME280;41332;42.702;23.200;2022-12-10T02:49:40;93276.22;;;11.21;78.01
55468;BME280;41332;42.702;23.200;2022-12-10T02:52:12;93279.47;;;11.14;78.87
55468;BME280;41332;42.702;23.200;2022-12-10T03:05:01;93264.50;;;10.99;81.86
55468;BME280;41332;42.702;23.200;2022-12-10T03:07:38;93265.25;;;10.99;83.02
55468;BME280;41332;42.702;23.200;2022-12-10T03:12:52;93249.41;;;10.80;83.47
55468;BME280;41332;42.702;23.200;2022-12-10T03:15:21;93255.09;;;10.82;84.01
55468;BME280;41332;42.702;23.200;2022-12-10T03:17:50;93250.69;;;10.86;83.32
55468;BME280;41332;42.702;23.200;2022-12-10T03:20:16;93244.31;;;10.87;83.83
55468;BME280;41332;42.702;23.200;2022-12-10T03:22:44;93240.19;;;10.86;83.98
55468;BME280;41332;42.702;23.200;2022-12-10T03:25:14;93240.59;;;10.88;83.81
55468;BME280;41332;42.702;23.200;2022-12-10T03:27:42;93247.72;;;10.87;83.77
55468;BME280;41332;42.702;23.200;2022-12-10T03:30:09;93226.34;;;10.89;83.92
55468;BME280;41332;42.702;23.200;2022-12-10T03:32:35;93246.53;;;10.85;82.94
55468;BME280;41332;42.702;23.200;2022-12-10T03:35:02;93235.75;;;10.90;82.95
55468;BME280;41332;42.702;23.200;2022-12-10T03:37:28;93249.31;;;10.92;83.29
55468;BME280;41332;42.702;23.200;2022-12-10T03:39:55;93238.31;;;10.86;82.84
55468;BME280;41332;42.702;23.200;2022-12-10T03:42:21;93223.72;;;10.89;82.56
55468;BME280;41332;42.702;23.200;2022-12-10T03:44:49;93219.31;;;10.93;82.95
55468;BME280;41332;42.702;23.200;2022-12-10T03:47:15;93208.72;;;10.89;81.65
55468;BME280;41332;42.702;23.200;2022-12-10T03:49:42;93212.53;;;10.92;80.86
55468;BME280;41332;42.702;23.200;2022-12-10T03:52:08;93214.88;;;10.97;80.62
55468;BME280;41332;42.702;23.200;2022-12-10T03:54:34;93227.28;;;10.97;80.28
55468;BME280;41332;42.702;23.200;2022-12-10T03:56:59;93235.22;;;11.00;79.62
55468;BME280;41332;42.702;23.200;2022-12-10T03:59:24;93234.53;;;11.03;79.91
55468;BME280;41332;42.702;23.200;2022-12-10T04:01:50;93248.94;;;11.10;79.58
55468;BME280;41332;42.702;23.200;2022-12-10T04:04:16;93260.63;;;11.12;78.98
55468;BME280;41332;42.702;23.200;2022-12-10T04:06:44;93263.88;;;11.05;76.82
55468;BME280;41332;42.702;23.200;2022-12-10T04:09:11;93257.69;;;10.98;77.74
55468;BME280;41332;42.702;23.200;2022-12-10T04:11:37;93255.88;;;10.82;77.00
55468;BME280;41332;42.702;23.200;2022-12-10T04:14:02;93261.59;;;10.88;77.51
55468;BME280;41332;42.702;23.200;2022-12-10T04:16:46;93263.75;;;10.82;78.07
55468;BME280;41332;42.702;23.200;2022-12-10T04:19:15;93273.38;;;10.94;78.00
55468;BME280;41332;42.702;23.200;2022-12-10T04:21:42;93273.38;;;10.94;78.11
55468;BME280;41332;42.702;23.200;2022-12-10T04:24:29;93270.00;;;10.94;78.12
55468;BME280;41332;42.702;23.200;2022-12-10T04:27:18;93275.78;;;10.83;77.93
55468;BME280;41332;42.702;23.200;2022-12-10T04:29:45;93274.69;;;10.68;78.60
55468;BME280;41332;42.702;23.200;2022-12-10T04:32:10;93257.41;;;10.51;79.44
55468;BME280;41332;42.702;23.200;2022-12-10T04:34:36;93244.09;;;10.44;81.85
55468;BME280;41332;42.702;23.200;2022-12-10T04:37:02;93259.84;;;10.44;82.29
55468;BME280;41332;42.702;23.200;2022-12-10T04:39:28;93266.78;;;10.36;81.45
55468;BME280;41332;42.702;23.200;2022-12-10T04:41:54;93254.22;;;10.30;82.99
55468;BME280;41332;42.702;23.200;2022-12-10T04:44:20;93248.97;;;10.30;84.02
55468;BME280;41332;42.702;23.200;2022-12-10T04:46:46;93261.16;;;10.22;85.42
55468;BME280;41332;42.702;23.200;2022-12-10T04:49:12;93260.91;;;10.11;85.84
55468;BME280;41332;42.702;23.200;2022-12-10T04:51:38;93256.41;;;10.12;85.53
55468;BME280;41332;42.702;23.200;2022-12-10T04:54:04;93266.56;;;10.13;85.28
55468;BME280;41332;42.702;23.200;2022-12-10T04:56:30;93266.31;;;10.18;86.46
55468;BME280;41332;42.702;23.200;2022-12-10T04:58:58;93271.66;;;10.22;85.80
55468;BME280;41332;42.702;23.200;2022-12-10T05:01:23;93261.41;;;10.17;85.51
55468;BME280;41332;42.702;23.200;2022-12-10T05:03:50;93265.91;;;10.16;86.20
55468;BME280;41332;42.702;23.200;2022-12-10T05:06:16;93259.31;;;10.22;86.98
55468;BME280;41332;42.702;23.200;2022-12-10T05:08:42;93253.28;;;10.22;86.85
55468;BME280;41332;42.702;23.200;2022-12-10T05:11:14;93249.66;;;10.27;86.68
55468;BME280;41332;42.702;23.200;2022-12-10T05:13:40;93246.00;;;10.31;86.90
55468;BME280;41332;42.702;23.200;2022-12-10T05:16:07;93231.38;;;10.30;86.37
55468;BME280;41332;42.702;23.200;2022-12-10T05:18:34;93251.34;;;10.35;86.28
55468;BME280;41332;42.702;23.200;2022-12-10T05:21:01;93243.78;;;10.46;85.78
55468;BME280;41332;42.702;23.200;2022-12-10T05:23:27;93252.16;;;10.35;84.74
55468;BME280;41332;42.702;23.200;2022-12-10T05:28:39;93270.13;;;10.21;83.52
55468;BME280;41332;42.702;23.200;2022-12-10T05:31:05;93268.28;;;10.21;83.51
55468;BME280;41332;42.702;23.200;2022-12-10T05:33:36;93275.47;;;10.25;83.22
55468;BME280;41332;42.702;23.200;2022-12-10T05:36:03;93270.81;;;10.18;83.02
55468;BME280;41332;42.702;23.200;2022-12-10T05:38:31;93277.66;;;10.06;82.80
55468;BME280;41332;42.702;23.200;2022-12-10T05:41:09;93273.94;;;10.07;83.34
55468;BME280;41332;42.702;23.200;2022-12-10T05:43:36;93282.56;;;10.08;83.62
55468;BME280;41332;42.702;23.200;2022-12-10T05:46:03;93284.19;;;10.13;83.69
55468;BME280;41332;42.702;23.200;2022-12-10T05:48:29;93293.69;;;10.17;83.41
55468;BME280;41332;42.702;23.200;2022-12-10T05:50:55;93289.91;;;10.02;83.99
55468;BME280;41332;42.702;23.200;2022-12-10T05:53:21;93283.47;;;10.00;83.85
55468;BME280;41332;42.702;23.200;2022-12-10T05:55:46;93280.75;;;9.96;84.04
55468;BME280;41332;42.702;23.200;2022-12-10T05:58:13;93295.25;;;9.78;84.65
55468;BME280;41332;42.702;23.200;2022-12-10T06:00:39;93282.25;;;9.53;85.17
55468;BME280;41332;42.702;23.200;2022-12-10T06:03:05;93296.88;;;9.54;85.63
55468;BME280;41332;42.702;23.200;2022-12-10T06:05:40;93281.91;;;9.54;86.23
55468;BME280;41332;42.702;23.200;2022-12-10T06:08:06;93292.72;;;9.53;86.25
55468;BME280;41332;42.702;23.200;2022-12-10T06:10:35;93301.88;;;9.59;85.63
55468;BME280;41332;42.702;23.200;2022-12-10T06:13:02;93294.03;;;9.59;85.52
55468;BME280;41332;42.702;23.200;2022-12-10T06:15:28;93290.59;;;9.71;85.57
55468;BME280;41332;42.702;23.200;2022-12-10T06:17:54;93289.41;;;9.68;85.78
55468;BME280;41332;42.702;23.200;2022-12-10T06:20:20;93274.25;;;9.62;86.16
55468;BME280;41332;42.702;23.200;2022-12-10T06:22:45;93269.03;;;9.49;87.44
55468;BME280;41332;42.702;23.200;2022-12-10T06:25:10;93271.53;;;9.46;88.39
55468;BME280;41332;42.702;23.200;2022-12-10T06:27:36;93256.38;;;9.39;87.95
55468;BME280;41332;42.702;23.200;2022-12-10T06:30:02;93240.31;;;9.40;88.34
55468;BME280;41332;42.702;23.200;2022-12-10T06:32:27;93252.34;;;9.42;88.18
55468;BME280;41332;42.702;23.200;2022-12-10T06:34:52;93251.25;;;9.43;88.07
55468;BME280;41332;42.702;23.200;2022-12-10T06:37:18;93264.78;;;9.45;87.23
55468;BME280;41332;42.702;23.200;2022-12-10T06:39:44;93266.44;;;9.37;88.06
55468;BME280;41332;42.702;23.200;2022-12-10T06:42:09;93278.09;;;9.39;88.40
55468;BME280;41332;42.702;23.200;2022-12-10T06:44:35;93292.28;;;9.51;88.11
55468;BME280;41332;42.702;23.200;2022-12-10T06:47:00;93297.28;;;9.56;87.84
55468;BME280;41332;42.702;23.200;2022-12-10T06:49:25;93299.34;;;9.63;87.36
55468;BME280;41332;42.702;23.200;2022-12-10T06:51:51;93295.28;;;9.65;87.03
55468;BME280;41332;42.702;23.200;2022-12-10T06:54:16;93306.22;;;9.67;86.43
55468;BME280;41332;42.702;23.200;2022-12-10T06:56:41;93299.44;;;9.66;86.63
55468;BME280;41332;42.702;23.200;2022-12-10T06:59:07;93298.88;;;9.73;86.43
55468;BME280;41332;42.702;23.200;2022-12-10T07:01:32;93282.53;;;9.64;87.08
55468;BME280;41332;42.702;23.200;2022-12-10T07:03:58;93291.94;;;9.52;88.20
55468;BME280;41332;42.702;23.200;2022-12-10T07:06:25;93281.66;;;9.60;89.96
55468;BME280;41332;42.702;23.200;2022-12-10T07:08:51;93271.47;;;9.70;90.50
55468;BME280;41332;42.702;23.200;2022-12-10T07:11:19;93268.91;;;9.86;89.84
55468;BME280;41332;42.702;23.200;2022-12-10T07:13:45;93272.75;;;10.05;89.15
55468;BME280;41332;42.702;23.200;2022-12-10T07:16:15;93263.78;;;10.06;87.45
55468;BME280;41332;42.702;23.200;2022-12-10T07:18:41;93272.25;;;10.15;88.46
55468;BME280;41332;42.702;23.200;2022-12-10T07:21:20;93272.06;;;10.08;87.49
55468;BME280;41332;42.702;23.200;2022-12-10T07:23:46;93267.94;;;10.07;87.74
55468;BME280;41332;42.702;23.200;2022-12-10T07:26:12;93265.22;;;10.03;87.21
55468;BME280;41332;42.702;23.200;2022-12-10T07:28:37;93262.06;;;9.98;87.46
55468;BME280;41332;42.702;23.200;2022-12-10T07:31:05;93269.88;;;10.10;87.43
55468;BME280;41332;42.702;23.200;2022-12-10T07:33:30;93270.56;;;10.07;87.52
55468;BME280;41332;42.702;23.200;2022-12-10T07:35:56;93275.69;;;10.03;86.87
55468;BME280;41332;42.702;23.200;2022-12-10T07:38:22;93273.91;;;9.92;87.36
55468;BME280;41332;42.702;23.200;2022-12-10T07:40:48;93279.16;;;9.92;87.64
55468;BME280;41332;42.702;23.200;2022-12-10T07:43:13;93264.91;;;9.93;87.68
55468;BME280;41332;42.702;23.200;2022-12-10T07:45:39;93265.69;;;9.93;87.54
55468;BME280;41332;42.702;23.200;2022-12-10T07:48:04;93275.81;;;9.79;88.00
55468;BME280;41332;42.702;23.200;2022-12-10T07:50:31;93272.19;;;9.83;88.59
55468;BME280;41332;42.702;23.200;2022-12-10T07:52:56;93273.38;;;9.86;89.15
55468;BME280;41332;42.702;23.200;2022-12-10T07:55:21;93257.47;;;9.95;89.48
55468;BME280;41332;42.702;23.200;2022-12-10T07:57:47;93251.25;;;10.15;89.59
55468;BME280;41332;42.702;23.200;2022-12-10T08:00:12;93242.41;;;10.36;88.39
55468;BME280;41332;42.702;23.200;2022-12-10T08:02:38;93228.69;;;10.43;86.85
55468;BME280;41332;42.702;23.200;2022-12-10T08:05:03;93223.50;;;10.78;85.59
55468;BME280;41332;42.702;23.200;2022-12-10T08:07:29;93215.59;;;10.94;85.03
55468;BME280;41332;42.702;23.200;2022-12-10T08:09:54;93218.31;;;11.17;84.06
55468;BME280;41332;42.702;23.200;2022-12-10T08:12:23;93210.09;;;11.38;82.39
55468;BME280;41332;42.702;23.200;2022-12-10T08:14:48;93213.22;;;11.64;81.43
55468;BME280;41332;42.702;23.200;2022-12-10T08:17:13;93214.44;;;11.90;80.49
55468;BME280;41332;42.702;23.200;2022-12-10T08:19:39;93220.13;;;12.15;78.49
55468;BME280;41332;42.702;23.200;2022-12-10T08:22:04;93215.97;;;12.37;77.01
55468;BME280;41332;42.702;23.200;2022-12-10T08:24:30;93214.81;;;12.34;77.08
55468;BME280;41332;42.702;23.200;2022-12-10T08:26:55;93208.63;;;12.46;76.54
55468;BME280;41332;42.702;23.200;2022-12-10T08:29:22;93211.78;;;12.56;76.27
55468;BME280;41332;42.702;23.200;2022-12-10T08:31:47;93205.91;;;12.66;74.58
55468;BME280;41332;42.702;23.200;2022-12-10T08:34:15;93212.53;;;12.83;74.90
55468;BME280;41332;42.702;23.200;2022-12-10T08:36:41;93197.28;;;12.96;74.55
55468;BME280;41332;42.702;23.200;2022-12-10T08:39:07;93212.53;;;12.83;73.09
55468;BME280;41332;42.702;23.200;2022-12-10T08:41:32;93195.56;;;13.07;73.24
55468;BME280;41332;42.702;23.200;2022-12-10T08:43:58;93210.34;;;13.15;72.50
55468;BME280;41332;42.702;23.200;2022-12-10T08:46:23;93215.03;;;13.29;71.78
55468;BME280;41332;42.702;23.200;2022-12-10T08:48:50;93207.50;;;13.31;70.62
55468;BME280;41332;42.702;23.200;2022-12-10T08:51:18;93216.84;;;13.52;71.60
55468;BME280;41332;42.702;23.200;2022-12-10T08:53:45;93203.00;;;13.62;69.83
55468;BME280;41332;42.702;23.200;2022-12-10T08:56:11;93192.31;;;13.85;68.75
55468;BME280;41332;42.702;23.200;2022-12-10T08:58:37;93170.50;;;13.92;69.10
55468;BME280;41332;42.702;23.200;2022-12-10T09:01:11;93180.47;;;14.10;69.13
55468;BME280;41332;42.702;23.200;2022-12-10T09:03:37;93174.56;;;14.24;66.97
55468;BME280;41332;42.702;23.200;2022-12-10T09:06:05;93181.38;;;14.28;68.46
55468;BME280;41332;42.702;23.200;2022-12-10T09:08:31;93175.47;;;14.42;66.34
55468;BME280;41332;42.702;23.200;2022-12-10T09:10:57;93184.19;;;14.50;65.96
55468;BME280;41332;42.702;23.200;2022-12-10T09:13:22;93169.88;;;14.51;66.02
55468;BME280;41332;42.702;23.200;2022-12-10T09:15:52;93179.31;;;14.52;66.12
55468;BME280;41332;42.702;23.200;2022-12-10T09:18:18;93182.66;;;14.49;67.95
55468;BME280;41332;42.702;23.200;2022-12-10T09:20:43;93190.75;;;14.22;66.89
55468;BME280;41332;42.702;23.200;2022-12-10T09:23:09;93188.63;;;13.94;69.84
55468;BME280;41332;42.702;23.200;2022-12-10T09:25:34;93185.53;;;13.50;71.91
55468;BME280;41332;42.702;23.200;2022-12-10T09:27:59;93154.78;;;13.31;71.04
55468;BME280;41332;42.702;23.200;2022-12-10T09:30:25;93168.44;;;13.37;71.35
55468;BME280;41332;42.702;23.200;2022-12-10T09:32:50;93162.31;;;13.29;72.89
55468;BME280;41332;42.702;23.200;2022-12-10T09:35:16;93160.69;;;13.21;73.15
55468;BME280;41332;42.702;23.200;2022-12-10T09:37:41;93152.75;;;13.17;73.66
55468;BME280;41332;42.702;23.200;2022-12-10T09:40:07;93150.97;;;13.29;72.18
55468;BME280;41332;42.702;23.200;2022-12-10T09:42:54;93142.19;;;13.17;73.47
55468;BME280;41332;42.702;23.200;2022-12-10T09:48:20;93148.00;;;13.00;75.35
55468;BME280;41332;42.702;23.200;2022-12-10T09:53:30;93132.44;;;13.22;75.30
55468;BME280;41332;42.702;23.200;2022-12-10T09:55:57;93146.28;;;13.45;73.02
55468;BME280;41332;42.702;23.200;2022-12-10T09:58:27;93144.66;;;13.71;71.72
55468;BME280;41332;42.702;23.200;2022-12-10T10:03:24;93144.06;;;13.89;71.36
55468;BME280;41332;42.702;23.200;2022-12-10T10:05:52;93128.41;;;14.10;71.30
55468;BME280;41332;42.702;23.200;2022-12-10T10:08:29;93134.81;;;14.09;70.96
55468;BME280;41332;42.702;23.200;2022-12-10T10:10:58;93134.81;;;14.06;70.14
55468;BME280;41332;42.702;23.200;2022-12-10T10:13:58;93110.56;;;13.96;70.62
55468;BME280;41332;42.702;23.200;2022-12-10T10:18:59;93091.94;;;13.75;69.18
55468;BME280;41332;42.702;23.200;2022-12-10T10:21:28;93106.97;;;13.71;71.84
55468;BME280;41332;42.702;23.200;2022-12-10T10:23:55;93102.38;;;13.60;71.72
55468;BME280;41332;42.702;23.200;2022-12-10T10:26:24;93107.38;;;13.73;72.57
55468;BME280;41332;42.702;23.200;2022-12-10T10:28:54;93082.50;;;13.74;71.46
55468;BME280;41332;42.702;23.200;2022-12-10T10:31:30;93095.59;;;14.08;68.58
55468;BME280;41332;42.702;23.200;2022-12-10T10:33:59;93085.13;;;14.18;67.06
55468;BME280;41332;42.702;23.200;2022-12-10T10:36:30;93088.16;;;14.24;68.58
55468;BME280;41332;42.702;23.200;2022-12-10T10:38:56;93067.78;;;14.21;66.95
55468;BME280;41332;42.702;23.200;2022-12-10T10:41:23;93061.47;;;14.37;66.64
55468;BME280;41332;42.702;23.200;2022-12-10T10:43:51;93064.97;;;14.59;65.64
55468;BME280;41332;42.702;23.200;2022-12-10T10:46:22;93073.34;;;14.64;64.67
55468;BME280;41332;42.702;23.200;2022-12-10T10:48:48;93076.38;;;14.70;63.87
55468;BME280;41332;42.702;23.200;2022-12-10T10:51:15;93065.84;;;14.77;63.55
55468;BME280;41332;42.702;23.200;2022-12-10T10:53:50;93051.16;;;14.83;63.78
55468;BME280;41332;42.702;23.200;2022-12-10T11:01:14;93066.72;;;15.07;62.19
55468;BME280;41332;42.702;23.200;2022-12-10T11:03:47;93050.81;;;14.92;63.17
55468;BME280;41332;42.702;23.200;2022-12-10T11:06:13;93041.69;;;14.82;61.89
55468;BME280;41332;42.702;23.200;2022-12-10T11:08:41;93036.81;;;14.88;62.06
55468;BME280;41332;42.702;23.200;2022-12-10T11:11:39;93025.06;;;14.78;63.35
55468;BME280;41332;42.702;23.200;2022-12-10T11:14:24;93025.81;;;14.79;63.44
55468;BME280;41332;42.702;23.200;2022-12-10T11:17:00;93007.34;;;14.86;63.44
55468;BME280;41332;42.702;23.200;2022-12-10T11:19:26;93029.19;;;14.69;65.58
55468;BME280;41332;42.702;23.200;2022-12-10T11:21:52;93031.31;;;14.45;65.73
55468;BME280;41332;42.702;23.200;2022-12-10T11:24:19;93030.19;;;14.46;65.74
55468;BME280;41332;42.702;23.200;2022-12-10T13:30:35;92857.63;;;13.39;67.26
55468;BME280;41332;42.702;23.200;2022-12-10T13:33:17;92842.19;;;13.41;66.29
55468;BME280;41332;42.702;23.200;2022-12-10T13:36:06;92835.13;;;13.52;65.95
55468;BME280;41332;42.702;23.200;2022-12-10T13:38:39;92824.97;;;13.62;65.02
55468;BME280;41332;42.702;23.200;2022-12-10T13:41:06;92842.66;;;13.54;69.46
55468;BME280;41332;42.702;23.200;2022-12-10T13:43:56;92836.94;;;13.45;70.02
55468;BME280;41332;42.702;23.200;2022-12-10T13:46:51;92841.44;;;13.41;70.45
55468;BME280;41332;42.702;23.200;2022-12-10T13:49:19;92832.75;;;13.37;71.12
55468;BME280;41332;42.702;23.200;2022-12-10T13:51:58;92866.94;;;13.26;72.06
55468;BME280;41332;42.702;23.200;2022-12-10T14:00:19;92854.66;;;12.96;73.52
55468;BME280;41332;42.702;23.200;2022-12-10T14:06:12;92853.09;;;12.91;73.82
55468;BME280;41332;42.702;23.200;2022-12-10T14:08:40;92830.47;;;12.83;73.92
55468;BME280;41332;42.702;23.200;2022-12-10T14:11:26;92843.31;;;12.88;73.86
55468;BME280;41332;42.702;23.200;2022-12-10T14:13:56;92840.38;;;12.97;73.38
55468;BME280;41332;42.702;23.200;2022-12-10T14:16:28;92825.31;;;12.97;73.09
55468;BME280;41332;42.702;23.200;2022-12-10T14:19:03;92816.28;;;12.98;72.71
55468;BME280;41332;42.702;23.200;2022-12-10T14:21:34;92820.03;;;12.97;73.07
55468;BME280;41332;42.702;23.200;2022-12-10T14:24:00;92812.84;;;12.91;72.97
55468;BME280;41332;42.702;23.200;2022-12-10T14:26:32;92807.19;;;12.92;72.59
55468;BME280;41332;42.702;23.200;2022-12-10T14:28:59;92809.75;;;12.85;72.78
55468;BME280;41332;42.702;23.200;2022-12-10T14:31:34;92800.03;;;12.93;72.59
55468;BME280;41332;42.702;23.200;2022-12-10T14:34:04;92814.28;;;12.84;73.09
55468;BME280;41332;42.702;23.200;2022-12-10T14:36:43;92810.16;;;12.87;72.57
55468;BME280;41332;42.702;23.200;2022-12-10T14:39:15;92806.00;;;12.86;72.72
55468;BME280;41332;42.702;23.200;2022-12-10T14:41:41;92804.94;;;12.91;72.50
55468;BME280;41332;42.702;23.200;2022-12-10T14:44:12;92801.59;;;12.97;72.28
55468;BME280;41332;42.702;23.200;2022-12-10T14:46:38;92805.78;;;13.06;72.17
55468;BME280;41332;42.702;23.200;2022-12-10T14:49:04;92814.88;;;13.15;71.62
55468;BME280;41332;42.702;23.200;2022-12-10T14:51:33;92802.47;;;13.19;71.62
55468;BME280;41332;42.702;23.200;2022-12-10T14:54:02;92806.94;;;13.12;71.57
55468;BME280;41332;42.702;23.200;2022-12-10T14:56:33;92810.75;;;13.18;71.34
55468;BME280;41332;42.702;23.200;2022-12-10T15:01:35;92811.19;;;13.27;71.16
55468;BME280;41332;42.702;23.200;2022-12-10T15:04:03;92805.16;;;13.27;71.12
55468;BME280;41332;42.702;23.200;2022-12-10T15:06:35;92796.47;;;13.23;70.97
55468;BME280;41332;42.702;23.200;2022-12-10T15:09:03;92814.91;;;13.19;71.14
55468;BME280;41332;42.702;23.200;2022-12-10T15:11:29;92796.28;;;12.94;72.19
55468;BME280;41332;42.702;23.200;2022-12-10T15:13:59;92805.56;;;12.77;72.17
55468;BME280;41332;42.702;23.200;2022-12-10T15:16:43;92799.88;;;12.71;72.54
55468;BME280;41332;42.702;23.200;2022-12-10T15:21:46;92780.25;;;12.65;72.81
55468;BME280;41332;42.702;23.200;2022-12-10T15:24:26;92781.69;;;12.55;73.75
55468;BME280;41332;42.702;23.200;2022-12-10T15:26:52;92770.00;;;12.52;74.23
55468;BME280;41332;42.702;23.200;2022-12-10T15:31:47;92768.19;;;12.15;76.04
55468;BME280;41332;42.702;23.200;2022-12-10T15:34:13;92769.66;;;12.16;75.46
55468;BME280;41332;42.702;23.200;2022-12-10T15:36:41;92765.63;;;12.26;75.59
55468;BME280;41332;42.702;23.200;2022-12-10T15:41:43;92772.13;;;12.36;75.62
55468;BME280;41332;42.702;23.200;2022-12-10T15:46:48;92773.53;;;12.26;75.96
55468;BME280;41332;42.702;23.200;2022-12-10T15:49:14;92777.19;;;12.14;76.69
55468;BME280;41332;42.702;23.200;2022-12-10T15:51:40;92773.41;;;12.12;76.89
55468;BME280;41332;42.702;23.200;2022-12-10T15:54:21;92768.56;;;12.17;76.66
55468;BME280;41332;42.702;23.200;2022-12-10T15:56:47;92771.63;;;12.23;76.55
55468;BME280;41332;42.702;23.200;2022-12-10T15:59:12;92769.00;;;12.27;76.61
55468;BME280;41332;42.702;23.200;2022-12-10T16:01:37;92771.84;;;12.07;77.17
55468;BME280;41332;42.702;23.200;2022-12-10T16:04:03;92762.63;;;11.90;77.94
55468;BME280;41332;42.702;23.200;2022-12-10T16:06:28;92752.56;;;11.96;77.64
55468;BME280;41332;42.702;23.200;2022-12-10T16:08:54;92749.88;;;11.92;77.87
55468;BME280;41332;42.702;23.200;2022-12-10T16:11:19;92754.22;;;11.77;78.79